In Rescue
 
Open Full Screen Window  High Contrast Mode
Wind Gusting 00 knots
04
May 13, 2021 11:12 AM EDT
Present Weather: Haze
Weather Information
Wind Direction
  020 °
Wind Speed
  04 kt (5 mph)
Wind Gust
  00 kt (0 mph)
Altimeter
30.37 in
Visibility
4 SM
Temperature
15° C
59° F
Dewpoint
01° C
34° F
Humidity
39%
Sky Condition
Clear
MVFR

METAR KCVX 131512Z AUTO 02004KT 4SM HZ CLR 15/01 A3037 RMK AO2 T01470007

FAA Disclaimer: The data displayed is for advisory purposes only and is not to be used for flight planning or operations.